MMLM/LMM METAR and TAF weather

Enter ICAO airport designator
Station Type Date Time Source
MMLM METAR 2020/09/22 19:40 UTC NOAA

MMLM 221940Z 21013KT 10SM FEW020TCU 32/23 A2993 RMK 8/200 HZY


Station Type Date Time Source
MMLM Decoded METAR 2020/09/22 19:40 UTC NOAA

Los Mochis Airport, Mexico (MMLM) 25-41N 109-05W
Sep 22, 2020 - 03:40 PM EDT / 2020.09.22 1940 UTC
Wind: from the SSW (210 degrees) at 15 MPH (13 KT):0
Visibility: 10 mile(s):0
Sky conditions: mostly clear
Weather: Towering cumulus clouds observed
Temperature: 89 F (32 C)
Heat index: 96.8 F (36.0 C):1
Dew Point: 73 F (23 C)
Relative Humidity: 59%
Pressure (altimeter): 29.93 in. Hg (1013 hPa)
ob: MMLM 221940Z 21013KT 10SM FEW020TCU 32/23 A2993 RMK 8/200 HZY
cycle: 19

Station Type Date Time Source
MMLM TAF 2020/09/22 18:18 UTC NOAA

TAF MMLM 221713Z 2218/2318 24008KT P6SM BKN030 VC CB
FM230200 29005KT P6SM SCT020
TEMPO 2310/2314 BKN020

Example: see airport list